Goodhue, MN

6:39 AM CDT on March 31, 2015 (GMT -0500)
Covered Bridge Park | | Change Station
CLOSE
Current Station
Personal Weather Station
Location: Zumbrota, MN
Elevation: 979 ft
Nearby Weather Stations

Elev 979 ft 44.30 °N, 92.68 °W | Updated 17 seconds ago

Partly Cloudy
Partly Cloudy
27.3 °F
Feels Like 27 °F
N
0.0
Wind Variable Wind from West
Gusts 0.0 mph

Today
High -- | Low -- °F
--% Chance of Precip.
Yesterday
High -- | Low -- °F
Precip. -- in
6:53 AM 7:36 PM
Waxing Gibbous, 86% visible
Pressure 29.90 in
Visibility 0.2 miles
Clouds Overcast 100 ft
Windchill 27 °F
Dew Point 25 °F
Humidity 92%
Rainfall 0.00 in
Snow Depth Not available.
UV 0.0 out of 12
Pollen 6.70 out of 12
Air Quality Not available.
Flu Activity Not available.
METAR KRGK 311131Z AUTO 00000KT 1/4SM FZFG OVC001 M01/M01 A2990 RMK AO2

More Conditions Fewer Conditions

Pressure 29.90 in
Visibility 0.2 miles
Clouds Overcast 100 ft
Windchill 27 °F
Dew Point 25 °F
Humidity 92%
Rainfall 0.00 in
Snow Depth Not available.
UV 0.0 out of 12
Pollen 6.70 out of 12
Air Quality Not available.
Flu Activity Not available.
METAR KRGK 311131Z AUTO 00000KT 1/4SM FZFG OVC001 M01/M01 A2990 RMK AO2

More Conditions Fewer Conditions

10-Day Weather Forecast

Almanac

Astronomy

Mar. 31, 2015 Rise Set
Actual Time
Civil Twilight
Nautical Twilight
Astronomical Twilight
Moon
Length of Visible Light
Length of Day
Tomorrow will be .
, % of the Moon is Illuminated

Today's Extremes

State Highs State Lows

Community

WunderPhotos

Upload Photos

1,809,744 photos uploaded!

WunderBlogs® & News

Nearby

Air Quality

  Air Quality AQ Index Pollutant
Not available.

Snow Depth

Station Depth Elevation

Earthquake Activity

City Distance Mag. Time & Date
Minimum magnitude displayed is 2.5.

Coastal Water Temperatures

Place Temperature

Stations

Nearby Weather Stations

Station Location Temp. Windchill Dew Point Humidity Wind Precip. Elev Updated Type